Time,TemperatureF,DewpointF,PressureIn,WindDirection,WindDirectionDegrees,WindSpeedMPH,WindSpeedGustMPH,Humidity,HourlyPrecipIn,Conditions,Clouds,dailyrainin,SoftwareType,DateUTC
2013-03-26 00:01:00,27.0,7.0,30.27,NNW,344,0.0,-999.0,42,-99.99,,,-99.99,,2013-03-26 06:01:00,
2013-03-26 00:12:00,27.0,7.0,30.27,NNW,344,0.0,-999.0,42,-99.99,,,-99.99,,2013-03-26 06:12:00,
2013-03-26 00:21:00,27.0,6.0,30.26,NNW,344,0.0,-999.0,41,-99.99,,,-99.99,,2013-03-26 06:21:00,
2013-03-26 00:31:00,27.0,9.0,30.26,NNW,344,0.0,-999.0,45,-99.99,,,-99.99,,2013-03-26 06:31:00,
2013-03-26 00:42:00,27.0,9.0,30.26,NNW,344,0.0,-999.0,45,-99.99,,,-99.99,,2013-03-26 06:42:00,
2013-03-26 00:52:00,27.0,7.0,30.25,NNW,344,0.0,-999.0,42,-99.99,,,-99.99,,2013-03-26 06:52:00,
2013-03-26 01:02:00,27.0,6.0,30.24,NNW,344,0.0,-999.0,41,-99.99,,,-99.99,,2013-03-26 07:02:00,
2013-03-26 01:11:00,27.0,6.0,30.24,NNW,344,0.0,-999.0,41,-99.99,,,-99.99,,2013-03-26 07:11:00,
2013-03-26 01:22:00,27.0,9.0,30.24,NNW,344,0.0,-999.0,46,-99.99,,,-99.99,,2013-03-26 07:22:00,
2013-03-26 01:32:00,26.0,9.0,30.24,NNW,344,0.0,-999.0,47,-99.99,,,-99.99,,2013-03-26 07:32:00,
2013-03-26 01:42:00,26.0,9.0,30.24,NNW,344,0.0,-999.0,47,-99.99,,,-99.99,,2013-03-26 07:42:00,
2013-03-26 01:52:00,25.0,9.0,30.24,NNW,344,0.0,-999.0,49,-99.99,,,-99.99,,2013-03-26 07:52:00,
2013-03-26 02:01:00,25.0,9.0,30.24,NNW,344,0.0,-999.0,50,-99.99,,,-99.99,,2013-03-26 08:01:00,
2013-03-26 02:12:00,25.0,9.0,30.24,NNW,344,0.0,-999.0,50,-99.99,,,-99.99,,2013-03-26 08:12:00,
2013-03-26 02:21:00,25.0,9.0,30.23,NNW,344,0.0,-999.0,50,-99.99,,,-99.99,,2013-03-26 08:21:00,
2013-03-26 02:31:00,25.0,9.0,30.23,NNW,344,0.0,-999.0,50,-99.99,,,-99.99,,2013-03-26 08:31:00,
2013-03-26 02:42:00,25.0,9.0,30.23,NNW,344,0.0,-999.0,50,-99.99,,,-99.99,,2013-03-26 08:42:00,
2013-03-26 02:52:00,24.0,8.0,30.23,NNW,344,0.0,-999.0,49,-99.99,,,-99.99,,2013-03-26 08:52:00,
2013-03-26 03:01:00,25.0,9.0,30.22,NNW,344,0.0,-999.0,49,-99.99,,,-99.99,,2013-03-26 09:01:00,
2013-03-26 03:11:00,25.0,9.0,30.22,NNW,344,0.0,-999.0,49,-99.99,,,-99.99,,2013-03-26 09:11:00,
2013-03-26 03:21:00,24.0,9.0,30.22,NNW,344,0.0,-999.0,52,-99.99,,,-99.99,,2013-03-26 09:21:00,
2013-03-26 03:32:00,24.0,9.0,30.22,NNW,344,0.0,-999.0,51,-99.99,,,-99.99,,2013-03-26 09:32:00,
2013-03-26 03:42:00,24.0,9.0,30.22,NNW,344,0.0,-999.0,51,-99.99,,,-99.99,,2013-03-26 09:42:00,
2013-03-26 03:52:00,23.0,8.0,30.22,NNW,344,0.0,-999.0,52,-99.99,,,-99.99,,2013-03-26 09:52:00,
2013-03-26 04:02:00,23.0,10.0,30.22,NNW,344,0.0,-999.0,56,-99.99,,,-99.99,,2013-03-26 10:02:00,
2013-03-26 04:12:00,23.0,10.0,30.22,NNW,344,0.0,-999.0,56,-99.99,,,-99.99,,2013-03-26 10:12:00,
2013-03-26 04:22:00,23.0,9.0,30.22,NNW,344,0.0,-999.0,54,-99.99,,,-99.99,,2013-03-26 10:22:00,
2013-03-26 04:32:00,23.0,9.0,30.22,NNW,344,0.0,-999.0,55,-99.99,,,-99.99,,2013-03-26 10:32:00,
2013-03-26 04:42:00,23.0,9.0,30.22,NNW,344,0.0,-999.0,55,-99.99,,,-99.99,,2013-03-26 10:42:00,
2013-03-26 04:52:00,23.0,10.0,30.22,NNW,344,0.0,-999.0,57,-99.99,,,-99.99,,2013-03-26 10:52:00,
2013-03-26 05:02:00,22.0,9.0,30.21,NNW,344,0.0,-999.0,57,-99.99,,,-99.99,,2013-03-26 11:02:00,
2013-03-26 05:11:00,22.0,9.0,30.21,NNW,344,0.0,-999.0,57,-99.99,,,-99.99,,2013-03-26 11:11:00,
2013-03-26 05:21:00,23.0,9.0,30.20,NNW,344,0.0,-999.0,55,-99.99,,,-99.99,,2013-03-26 11:21:00,
2013-03-26 05:32:00,22.0,9.0,30.20,NNW,344,0.0,-999.0,57,-99.99,,,-99.99,,2013-03-26 11:32:00,
2013-03-26 05:42:00,22.0,9.0,30.20,NNW,344,0.0,-999.0,57,-99.99,,,-99.99,,2013-03-26 11:42:00,
2013-03-26 05:52:00,22.0,9.0,30.21,NNW,344,0.0,-999.0,56,-99.99,,,-99.99,,2013-03-26 11:52:00,
2013-03-26 06:02:00,22.0,9.0,30.21,NNW,344,0.0,-999.0,56,-99.99,,,-99.99,,2013-03-26 12:02:00,
2013-03-26 06:12:00,22.0,9.0,30.21,NNW,344,0.0,-999.0,56,-99.99,,,-99.99,,2013-03-26 12:12:00,
2013-03-26 06:21:00,21.0,9.0,30.21,NNW,344,0.0,-999.0,59,-99.99,,,-99.99,,2013-03-26 12:21:00,
2013-03-26 06:31:00,22.0,9.0,30.21,NNW,344,0.0,-999.0,57,-99.99,,,-99.99,,2013-03-26 12:31:00,
2013-03-26 06:43:00,22.0,9.0,30.21,NNW,344,0.0,-999.0,57,-99.99,,,-99.99,,2013-03-26 12:43:00,
2013-03-26 06:52:00,21.0,10.0,30.22,NNW,344,0.0,-999.0,61,-99.99,,,-99.99,,2013-03-26 12:52:00,
2013-03-26 07:02:00,22.0,11.0,30.22,NNW,344,0.0,-999.0,61,-99.99,,,-99.99,,2013-03-26 13:02:00,
2013-03-26 07:11:00,22.0,11.0,30.22,NNW,344,0.0,-999.0,61,-99.99,,,-99.99,,2013-03-26 13:11:00,
2013-03-26 07:22:00,22.0,10.0,30.21,NNW,344,0.0,-999.0,58,-99.99,,,-99.99,,2013-03-26 13:22:00,
2013-03-26 07:32:00,22.0,10.0,30.21,NNW,344,0.0,-999.0,60,-99.99,,,-99.99,,2013-03-26 13:32:00,
2013-03-26 07:42:00,22.0,10.0,30.21,NNW,344,0.0,-999.0,60,-99.99,,,-99.99,,2013-03-26 13:42:00,
2013-03-26 07:52:00,22.0,10.0,30.21,NNW,344,0.0,-999.0,60,-99.99,,,-99.99,,2013-03-26 13:52:00,
2013-03-26 08:01:00,22.0,11.0,30.21,NNW,344,0.0,-999.0,62,-99.99,,,-99.99,,2013-03-26 14:01:00,
2013-03-26 08:11:00,22.0,11.0,30.21,NNW,344,0.0,-999.0,62,-99.99,,,-99.99,,2013-03-26 14:11:00,
2013-03-26 08:22:00,23.0,11.0,30.21,NNW,344,0.0,-999.0,60,-99.99,,,-99.99,,2013-03-26 14:22:00,
2013-03-26 08:32:00,24.0,12.0,30.20,NNW,344,0.0,-999.0,60,-99.99,,,-99.99,,2013-03-26 14:32:00,
2013-03-26 08:42:00,24.0,12.0,30.20,NNW,344,0.0,-999.0,60,-99.99,,,-99.99,,2013-03-26 14:42:00,
2013-03-26 08:52:00,25.0,12.0,30.20,NNW,344,0.0,-999.0,58,-99.99,,,-99.99,,2013-03-26 14:52:00,
2013-03-26 09:02:00,26.0,13.0,30.19,NNW,344,0.0,-999.0,57,-99.99,,,-99.99,,2013-03-26 15:02:00,
2013-03-26 09:11:00,26.0,13.0,30.19,NNW,344,0.0,-999.0,57,-99.99,,,-99.99,,2013-03-26 15:11:00,
2013-03-26 09:21:00,28.0,13.0,30.19,NNW,344,0.0,-999.0,53,-99.99,,,-99.99,,2013-03-26 15:21:00,
2013-03-26 09:32:00,29.0,14.0,30.18,NNW,344,0.0,-999.0,53,-99.99,,,-99.99,,2013-03-26 15:32:00,
2013-03-26 09:42:00,29.0,14.0,30.18,NNW,344,0.0,-999.0,53,-99.99,,,-99.99,,2013-03-26 15:42:00,
2013-03-26 09:52:00,30.0,13.0,30.18,NNW,344,0.0,-999.0,49,-99.99,,,-99.99,,2013-03-26 15:52:00,
2013-03-26 10:02:00,32.0,15.0,30.17,ESE,122,0.0,-999.0,48,-99.99,,,-99.99,,2013-03-26 16:02:00,
2013-03-26 10:12:00,32.0,15.0,30.17,ESE,122,0.0,-999.0,48,-99.99,,,-99.99,,2013-03-26 16:12:00,
2013-03-26 10:22:00,34.0,15.0,30.16,SE,125,0.0,-999.0,45,-99.99,,,-99.99,,2013-03-26 16:22:00,
2013-03-26 10:32:00,34.0,15.0,30.16,SE,130,1.0,-999.0,45,-99.99,,,-99.99,,2013-03-26 16:32:00,
2013-03-26 10:42:00,34.0,15.0,30.16,SE,130,1.0,-999.0,45,-99.99,,,-99.99,,2013-03-26 16:42:00,
2013-03-26 10:53:00,37.0,16.0,30.14,SE,128,0.0,-999.0,41,-99.99,,,-99.99,,2013-03-26 16:53:00,
2013-03-26 11:02:00,38.0,16.0,30.14,South,181,1.0,-999.0,40,-99.99,,,-99.99,,2013-03-26 17:02:00,
2013-03-26 11:12:00,38.0,16.0,30.14,South,181,1.0,-999.0,40,-99.99,,,-99.99,,2013-03-26 17:12:00,
2013-03-26 11:22:00,40.0,16.0,30.13,South,169,1.0,-999.0,37,-99.99,,,-99.99,,2013-03-26 17:22:00,
2013-03-26 11:32:00,41.0,16.0,30.14,South,172,3.0,-999.0,36,-99.99,,,-99.99,,2013-03-26 17:32:00,
2013-03-26 11:42:00,41.0,16.0,30.14,South,172,3.0,-999.0,36,-99.99,,,-99.99,,2013-03-26 17:42:00,
2013-03-26 11:53:00,42.0,16.0,30.13,South,187,3.0,-999.0,35,-99.99,,,-99.99,,2013-03-26 17:53:00,
2013-03-26 12:01:00,43.0,17.0,30.12,South,169,4.0,-999.0,34,-99.99,,,-99.99,,2013-03-26 18:01:00,
2013-03-26 12:12:00,43.0,17.0,30.12,South,169,4.0,-999.0,34,-99.99,,,-99.99,,2013-03-26 18:12:00,
2013-03-26 12:22:00,43.0,17.0,30.11,South,185,4.0,-999.0,34,-99.99,,,-99.99,,2013-03-26 18:22:00,
2013-03-26 12:33:00,43.0,16.0,30.10,ESE,123,3.0,-999.0,33,-99.99,,,-99.99,,2013-03-26 18:33:00,
2013-03-26 12:42:00,43.0,16.0,30.10,ESE,123,3.0,-999.0,33,-99.99,,,-99.99,,2013-03-26 18:42:00,
2013-03-26 12:52:00,44.0,17.0,30.10,South,186,3.0,-999.0,33,-99.99,,,-99.99,,2013-03-26 18:52:00,
2013-03-26 13:01:00,44.0,16.0,30.10,South,178,4.0,-999.0,32,-99.99,,,-99.99,,2013-03-26 19:01:00,
2013-03-26 13:11:00,44.0,16.0,30.10,South,178,4.0,-999.0,32,-99.99,,,-99.99,,2013-03-26 19:11:00,
2013-03-26 13:22:00,45.0,17.0,30.09,South,175,3.0,-999.0,32,-99.99,,,-99.99,,2013-03-26 19:22:00,
2013-03-26 13:32:00,45.0,17.0,30.09,South,175,3.0,-999.0,32,-99.99,,,-99.99,,2013-03-26 19:32:00,
2013-03-26 13:42:00,45.0,17.0,30.09,South,175,3.0,-999.0,32,-99.99,,,-99.99,,2013-03-26 19:42:00,
2013-03-26 13:53:00,45.0,17.0,30.07,East,84,3.0,-999.0,32,-99.99,,,-99.99,,2013-03-26 19:53:00,
2013-03-26 14:01:00,45.0,17.0,30.06,ESE,109,3.0,-999.0,32,-99.99,,,-99.99,,2013-03-26 20:01:00,
2013-03-26 14:12:00,45.0,17.0,30.06,ESE,109,3.0,-999.0,32,-99.99,,,-99.99,,2013-03-26 20:12:00,
2013-03-26 14:22:00,45.0,17.0,30.06,South,176,3.0,-999.0,32,-99.99,,,-99.99,,2013-03-26 20:22:00,
2013-03-26 14:32:00,45.0,16.0,30.05,SSE,160,5.0,-999.0,31,-99.99,,,-99.99,,2013-03-26 20:32:00,
2013-03-26 14:42:00,45.0,16.0,30.05,SSE,160,5.0,-999.0,31,-99.99,,,-99.99,,2013-03-26 20:42:00,
2013-03-26 14:52:00,45.0,16.0,30.05,South,176,4.0,-999.0,31,-99.99,,,-99.99,,2013-03-26 20:52:00,
2013-03-26 15:01:00,45.0,18.0,30.04,NW,318,4.0,-999.0,33,-99.99,,,-99.99,,2013-03-26 21:01:00,
2013-03-26 15:12:00,45.0,18.0,30.04,NW,318,4.0,-999.0,33,-99.99,,,-99.99,,2013-03-26 21:12:00,
2013-03-26 15:22:00,45.0,18.0,30.04,NW,318,4.0,-999.0,33,-99.99,,,-99.99,,2013-03-26 21:22:00,
2013-03-26 15:32:00,45.0,18.0,30.04,NW,318,4.0,-999.0,33,-99.99,,,-99.99,,2013-03-26 21:32:00,
2013-03-26 15:42:00,45.0,18.0,30.04,NW,318,4.0,-999.0,33,-99.99,,,-99.99,,2013-03-26 21:42:00,
2013-03-26 16:22:00,46.0,16.0,30.01,East,95,3.0,-999.0,30,-99.99,,,-99.99,,2013-03-26 22:22:00,
2013-03-26 16:32:00,46.0,16.0,30.01,East,95,3.0,-999.0,30,-99.99,,,-99.99,,2013-03-26 22:32:00,
2013-03-26 16:41:00,46.0,16.0,30.01,East,95,3.0,-999.0,30,-99.99,,,-99.99,,2013-03-26 22:41:00,
2013-03-26 17:22:00,46.0,15.0,29.98,SSW,213,4.0,-999.0,28,-99.99,,,-99.99,,2013-03-26 23:22:00,
2013-03-26 17:32:00,46.0,16.0,29.99,SE,142,3.0,-999.0,29,-99.99,,,-99.99,,2013-03-26 23:32:00,
2013-03-26 17:42:00,46.0,16.0,29.99,SE,142,3.0,-999.0,29,-99.99,,,-99.99,,2013-03-26 23:42:00,
2013-03-26 18:01:00,45.0,15.0,29.99,SSE,168,3.0,-999.0,30,-99.99,,,-99.99,,2013-03-27 00:01:00,
2013-03-26 18:11:00,45.0,15.0,29.99,SSE,168,3.0,-999.0,30,-99.99,,,-99.99,,2013-03-27 00:11:00,
2013-03-26 18:22:00,45.0,15.0,29.99,WSW,253,1.0,-999.0,30,-99.99,,,-99.99,,2013-03-27 00:22:00,
2013-03-26 18:32:00,45.0,15.0,29.98,SW,214,1.0,-999.0,30,-99.99,,,-99.99,,2013-03-27 00:32:00,
2013-03-26 18:42:00,45.0,15.0,29.98,SW,214,1.0,-999.0,30,-99.99,,,-99.99,,2013-03-27 00:42:00,
2013-03-26 18:52:00,45.0,15.0,29.98,WSW,252,1.0,-999.0,30,-99.99,,,-99.99,,2013-03-27 00:52:00,
2013-03-26 19:01:00,45.0,15.0,29.98,SSE,150,0.0,-999.0,30,-99.99,,,-99.99,,2013-03-27 01:01:00,
2013-03-26 19:11:00,45.0,15.0,29.98,SSE,150,0.0,-999.0,30,-99.99,,,-99.99,,2013-03-27 01:11:00,
2013-03-26 19:22:00,44.0,14.0,29.98,ESE,123,1.0,-999.0,29,-99.99,,,-99.99,,2013-03-27 01:22:00,
2013-03-26 19:32:00,44.0,14.0,29.98,ESE,121,0.0,-999.0,29,-99.99,,,-99.99,,2013-03-27 01:32:00,
2013-03-26 19:42:00,44.0,14.0,29.98,ESE,121,0.0,-999.0,29,-99.99,,,-99.99,,2013-03-27 01:42:00,
2013-03-26 19:52:00,43.0,14.0,29.98,ESE,121,0.0,-999.0,30,-99.99,,,-99.99,,2013-03-27 01:52:00,
2013-03-26 20:02:00,42.0,14.0,29.98,NNE,18,0.0,-999.0,32,-99.99,,,-99.99,,2013-03-27 02:02:00,
2013-03-26 20:11:00,42.0,14.0,29.98,NNE,18,0.0,-999.0,32,-99.99,,,-99.99,,2013-03-27 02:11:00,
2013-03-26 20:21:00,40.0,16.0,29.98,SSE,150,0.0,-999.0,38,-99.99,,,-99.99,,2013-03-27 02:21:00,
2013-03-26 20:31:00,40.0,15.0,29.99,SSE,150,0.0,-999.0,36,-99.99,,,-99.99,,2013-03-27 02:31:00,
2013-03-26 20:42:00,40.0,15.0,29.99,SSE,150,0.0,-999.0,36,-99.99,,,-99.99,,2013-03-27 02:42:00,
2013-03-26 20:52:00,39.0,16.0,29.99,SSE,150,0.0,-999.0,38,-99.99,,,-99.99,,2013-03-27 02:52:00,
2013-03-26 21:02:00,38.0,15.0,29.99,SSE,150,0.0,-999.0,39,-99.99,,,-99.99,,2013-03-27 03:02:00,
2013-03-26 21:11:00,38.0,15.0,29.99,SSE,150,0.0,-999.0,39,-99.99,,,-99.99,,2013-03-27 03:11:00,
2013-03-26 21:22:00,38.0,14.0,29.99,SSE,150,0.0,-999.0,37,-99.99,,,-99.99,,2013-03-27 03:22:00,
2013-03-26 21:32:00,37.0,14.0,29.99,SSE,150,0.0,-999.0,38,-99.99,,,-99.99,,2013-03-27 03:32:00,
2013-03-26 21:42:00,37.0,14.0,29.99,SSE,150,0.0,-999.0,38,-99.99,,,-99.99,,2013-03-27 03:42:00,
2013-03-26 21:53:00,38.0,15.0,30.00,SSE,150,0.0,-999.0,38,-99.99,,,-99.99,,2013-03-27 03:53:00,
2013-03-26 22:02:00,38.0,15.0,29.99,SSE,150,0.0,-999.0,39,-99.99,,,-99.99,,2013-03-27 04:02:00,
2013-03-26 22:12:00,38.0,15.0,29.99,SSE,150,0.0,-999.0,39,-99.99,,,-99.99,,2013-03-27 04:12:00,
2013-03-26 22:22:00,37.0,16.0,29.99,SSE,150,0.0,-999.0,41,-99.99,,,-99.99,,2013-03-27 04:22:00,
2013-03-26 22:32:00,37.0,16.0,29.99,SSE,150,0.0,-999.0,41,-99.99,,,-99.99,,2013-03-27 04:32:00,
2013-03-26 22:42:00,37.0,16.0,29.99,SSE,150,0.0,-999.0,41,-99.99,,,-99.99,,2013-03-27 04:42:00,
2013-03-26 22:52:00,36.0,16.0,29.99,SSE,150,0.0,-999.0,44,-99.99,,,-99.99,,2013-03-27 04:52:00,
2013-03-26 23:02:00,37.0,16.0,29.98,SSE,150,0.0,-999.0,42,-99.99,,,-99.99,,2013-03-27 05:02:00,
2013-03-26 23:12:00,37.0,16.0,29.98,SSE,150,0.0,-999.0,42,-99.99,,,-99.99,,2013-03-27 05:12:00,
2013-03-26 23:22:00,36.0,17.0,29.98,SSE,150,0.0,-999.0,46,-99.99,,,-99.99,,2013-03-27 05:22:00,
2013-03-26 23:32:00,36.0,17.0,29.98,SSE,150,0.0,-999.0,46,-99.99,,,-99.99,,2013-03-27 05:32:00,
2013-03-26 23:42:00,36.0,17.0,29.98,SSE,150,0.0,-999.0,46,-99.99,,,-99.99,,2013-03-27 05:42:00,
2013-03-26 23:52:00,35.0,17.0,29.98,SSE,150,0.0,-999.0,47,-99.99,,,-99.99,,2013-03-27 05:52:00,